Moby Aki — IBVV — position and weather

sailwx.info

Track history (hours):
 
Tides and Currents Weather Stations Pressure Air Temp Water Temp Dewpoint Dewpoint Depression Visibility Wind Speed Wind Dir Waves Ship Positions

Moby Aki

Last reported at 2017-Jan-18 08:24 UTC. Time now 2017-Jan-18 11:58 UTC.
Position N 42°54' E 010°01'.

Length 175 m; draft 6.9 m.

Type: Ship. MMSI: 247132400.

Date/timePositionNaut miles runAvg speedWind from/ knotsBaromVisibWave heightAir tempDewpointWater temp
2017-Jan-18 08:24N 42°54' E 010°01'2023.9
2017-Jan-18 07:34N 43°14' E 010°07'2019.7
2017-Jan-18 06:33N 43°32' E 010°17'1 0.9
2017-Jan-18 05:32N 43°33' E 010°18'0 0.0
2017-Jan-18 04:31N 43°33' E 010°18'0 0.0
2017-Jan-18 03:31N 43°33' E 010°18'0 0.0
2017-Jan-18 02:34N 43°33' E 010°18'0 0.0
2017-Jan-18 01:33N 43°33' E 010°18'0 0.0
2017-Jan-18 00:33N 43°33' E 010°18'0 0.0
2017-Jan-17 23:32N 43°33' E 010°18'0 0.0
2017-Jan-17 22:32N 43°33' E 010°18'0 0.0
2017-Jan-17 21:32N 43°33' E 010°18'0 0.0
2017-Jan-17 20:32N 43°33' E 010°18'0 0.0
2017-Jan-17 19:32N 43°33' E 010°18'0 0.0
2017-Jan-17 18:29N 43°33' E 010°18'0 0.0
2017-Jan-17 17:31N 43°33' E 010°18'0 0.0
2017-Jan-17 16:31N 43°33' E 010°18'0 0.0
2017-Jan-17 15:31N 43°33' E 010°18'0 0.0
2017-Jan-17 14:28N 43°33' E 010°18'0 0.0
2017-Jan-17 13:31N 43°33' E 010°18'0 0.0
2017-Jan-17 12:31N 43°33' E 010°18'0 0.0
2017-Jan-17 11:31N 43°33' E 010°18'0 0.0
2017-Jan-17 10:28N 43°33' E 010°18'0 0.0
2017-Jan-17 09:31N 43°33' E 010°18'0 0.0
2017-Jan-17 08:31N 43°33' E 010°18'0 0.0
2017-Jan-17 07:31N 43°33' E 010°18'0 0.0
2017-Jan-17 06:33N 43°33' E 010°18'0 0.3
2017-Jan-17 05:34N 43°33' E 010°18'9 8.8
2017-Jan-17 04:33N 43°25' E 010°12'2019.7
2017-Jan-17 03:33N 43°06' E 010°05'2222.0
2017-Jan-17 02:32N 42°46' E 009°51'19 0.7
2017-Jan-15 22:34N 43°02' E 010°04'2221.7
2017-Jan-15 21:34N 43°23' E 010°11'1110.7
2017-Jan-15 20:32N 43°33' E 010°18'0 0.0
2017-Jan-15 19:31N 43°33' E 010°18'0 0.0
2017-Jan-15 18:31N 43°33' E 010°18'0 0.0
2017-Jan-15 17:31N 43°33' E 010°18'0 0.0
2017-Jan-15 16:28N 43°33' E 010°18'0 0.0
2017-Jan-15 15:28N 43°33' E 010°18'0 0.0
2017-Jan-15 14:31N 43°33' E 010°18'0 0.0
2017-Jan-15 13:33N 43°33' E 010°18'0 0.0
2017-Jan-15 12:24N 43°33' E 010°18'0 0.0
2017-Jan-15 11:33N 43°33' E 010°18'0 0.0
2017-Jan-15 10:31N 43°33' E 010°18'0 0.0
2017-Jan-15 09:31N 43°33' E 010°18'0 0.0
2017-Jan-15 08:33N 43°33' E 010°18'0 0.0
2017-Jan-15 07:33N 43°33' E 010°18'0 0.0
2017-Jan-15 06:30N 43°33' E 010°18'0 0.0
2017-Jan-15 05:33N 43°33' E 010°18'8 7.6
2017-Jan-15 04:33N 43°27' E 010°12'1918.8
2017-Jan-15 03:34N 43°09' E 010°06'27 1.0
2017-Jan-13 23:33N 42°46' E 009°48'2222.4
2017-Jan-13 22:33N 42°58' E 010°13'2222.1
2017-Jan-13 21:33N 43°20' E 010°10'1413.5
2017-Jan-13 20:31N 43°33' E 010°18'0 0.0
2017-Jan-13 19:28N 43°33' E 010°18'0 0.0
2017-Jan-13 18:31N 43°33' E 010°18'0 0.0
2017-Jan-13 17:28N 43°33' E 010°18'0 0.0
2017-Jan-13 16:34N 43°33' E 010°18'0 0.0
2017-Jan-13 15:33N 43°33' E 010°18'0 0.0
2017-Jan-13 14:33N 43°33' E 010°18'0 0.0
2017-Jan-13 13:33N 43°33' E 010°18'0 0.0
2017-Jan-13 12:30N 43°33' E 010°18'0 0.0
2017-Jan-13 11:32N 43°33' E 010°18'0 0.0
2017-Jan-13 10:32N 43°33' E 010°18'0 0.0
2017-Jan-13 09:29N 43°33' E 010°18'0 0.0
2017-Jan-13 08:32N 43°33' E 010°18'0 0.0
2017-Jan-13 07:33N 43°33' E 010°18'8 8.0
2017-Jan-13 06:34N 43°28' E 010°10'1918.8
2017-Jan-13 05:33N 43°14' E 009°52'16 0.5
2017-Jan-11 22:33N 43°00' E 010°02'2221.8
2017-Jan-11 21:33N 43°21' E 010°10'1313.0
2017-Jan-11 20:33N 43°33' E 010°18'0 0.0
2017-Jan-11 19:29N 43°33' E 010°18'0 0.0
2017-Jan-11 18:32N 43°33' E 010°18'0 0.0
2017-Jan-11 17:32N 43°33' E 010°18'0 0.0
2017-Jan-11 16:32N 43°33' E 010°18'0 0.0
2017-Jan-11 15:29N 43°33' E 010°18'0 0.0
2017-Jan-11 14:31N 43°33' E 010°18'0 0.0
2017-Jan-11 13:31N 43°33' E 010°18'0 0.0
2017-Jan-11 12:31N 43°33' E 010°18'0 0.0
2017-Jan-11 11:31N 43°33' E 010°18'0 0.0
2017-Jan-11 10:28N 43°33' E 010°18'0 0.0
2017-Jan-11 09:33N 43°33' E 010°18'0 0.0
2017-Jan-11 08:27N 43°33' E 010°18'0 0.0
2017-Jan-11 07:33N 43°33' E 010°18'0 0.0
2017-Jan-11 06:33N 43°33' E 010°18'0 0.0
2017-Jan-11 05:30N 43°33' E 010°18'6 6.6
2017-Jan-11 04:33N 43°28' E 010°13'1919.2
2017-Jan-11 03:34N 43°09' E 010°07'10 0.3
2017-Jan-09 22:33N 43°00' E 010°03'2121.3
2017-Jan-09 21:33N 43°21' E 010°09'1413.9
2017-Jan-09 20:33N 43°33' E 010°18'0 0.0
2017-Jan-09 19:33N 43°33' E 010°18'0 0.0
2017-Jan-09 18:30N 43°33' E 010°18'0 0.0
2017-Jan-09 17:33N 43°33' E 010°18'0 0.0
2017-Jan-09 16:32N 43°33' E 010°18'0 0.0
2017-Jan-09 15:32N 43°33' E 010°18'0 0.0
2017-Jan-09 14:32N 43°33' E 010°18'0 0.0
2017-Jan-09 13:29N 43°33' E 010°18'0 0.0
2017-Jan-09 12:31N 43°33' E 010°18'0 0.0
2017-Jan-09 11:31N 43°33' E 010°18'0 0.0
2017-Jan-09 10:31N 43°33' E 010°18'0 0.0
2017-Jan-09 09:31N 43°33' E 010°18'0 0.0
2017-Jan-09 08:31N 43°33' E 010°18'0 0.0
2017-Jan-09 07:33N 43°33' E 010°18'0 0.0
2017-Jan-09 06:33N 43°33' E 010°18'0 0.0
2017-Jan-09 05:33N 43°33' E 010°18'7 7.1
2017-Jan-09 04:33N 43°27' E 010°12'1919.1
2017-Jan-09 03:33N 43°09' E 010°07'  
Track history (hours):
 
Tides and Currents Weather Stations Pressure Air Temp Water Temp Dewpoint Dewpoint Depression Visibility Wind Speed Wind Dir Waves Ship Positions

Moby Aki

Last reported at 2017-Jan-18 08:24 UTC. Time now 2017-Jan-18 11:58 UTC.
Position N 42°54' E 010°01'.

Length 175 m; draft 6.9 m.

Type: Ship. MMSI: 247132400.

Date/timePositionNaut miles runAvg speedWind from/ knotsBaromVisibWave heightAir tempDewpointWater temp
2017-Jan-18 08:24N 42°54' E 010°01'2023.9
2017-Jan-18 07:34N 43°14' E 010°07'2019.7
2017-Jan-18 06:33N 43°32' E 010°17'1 0.9
2017-Jan-18 05:32N 43°33' E 010°18'0 0.0
2017-Jan-18 04:31N 43°33' E 010°18'0 0.0
2017-Jan-18 03:31N 43°33' E 010°18'0 0.0
2017-Jan-18 02:34N 43°33' E 010°18'0 0.0
2017-Jan-18 01:33N 43°33' E 010°18'0 0.0
2017-Jan-18 00:33N 43°33' E 010°18'0 0.0
2017-Jan-17 23:32N 43°33' E 010°18'0 0.0
2017-Jan-17 22:32N 43°33' E 010°18'0 0.0
2017-Jan-17 21:32N 43°33' E 010°18'0 0.0
2017-Jan-17 20:32N 43°33' E 010°18'0 0.0
2017-Jan-17 19:32N 43°33' E 010°18'0 0.0
2017-Jan-17 18:29N 43°33' E 010°18'0 0.0
2017-Jan-17 17:31N 43°33' E 010°18'0 0.0
2017-Jan-17 16:31N 43°33' E 010°18'0 0.0
2017-Jan-17 15:31N 43°33' E 010°18'0 0.0
2017-Jan-17 14:28N 43°33' E 010°18'0 0.0
2017-Jan-17 13:31N 43°33' E 010°18'0 0.0
2017-Jan-17 12:31N 43°33' E 010°18'0 0.0
2017-Jan-17 11:31N 43°33' E 010°18'0 0.0
2017-Jan-17 10:28N 43°33' E 010°18'0 0.0
2017-Jan-17 09:31N 43°33' E 010°18'0 0.0
2017-Jan-17 08:31N 43°33' E 010°18'0 0.0
2017-Jan-17 07:31N 43°33' E 010°18'0 0.0
2017-Jan-17 06:33N 43°33' E 010°18'0 0.3
2017-Jan-17 05:34N 43°33' E 010°18'9 8.8
2017-Jan-17 04:33N 43°25' E 010°12'2019.7
2017-Jan-17 03:33N 43°06' E 010°05'2222.0
2017-Jan-17 02:32N 42°46' E 009°51'19 0.7
2017-Jan-15 22:34N 43°02' E 010°04'2221.7
2017-Jan-15 21:34N 43°23' E 010°11'1110.7
2017-Jan-15 20:32N 43°33' E 010°18'0 0.0
2017-Jan-15 19:31N 43°33' E 010°18'0 0.0
2017-Jan-15 18:31N 43°33' E 010°18'0 0.0
2017-Jan-15 17:31N 43°33' E 010°18'0 0.0
2017-Jan-15 16:28N 43°33' E 010°18'0 0.0
2017-Jan-15 15:28N 43°33' E 010°18'0 0.0
2017-Jan-15 14:31N 43°33' E 010°18'0 0.0
2017-Jan-15 13:33N 43°33' E 010°18'0 0.0
2017-Jan-15 12:24N 43°33' E 010°18'0 0.0
2017-Jan-15 11:33N 43°33' E 010°18'0 0.0
2017-Jan-15 10:31N 43°33' E 010°18'0 0.0
2017-Jan-15 09:31N 43°33' E 010°18'0 0.0
2017-Jan-15 08:33N 43°33' E 010°18'0 0.0
2017-Jan-15 07:33N 43°33' E 010°18'0 0.0
2017-Jan-15 06:30N 43°33' E 010°18'0 0.0
2017-Jan-15 05:33N 43°33' E 010°18'8 7.6
2017-Jan-15 04:33N 43°27' E 010°12'1918.8
2017-Jan-15 03:34N 43°09' E 010°06'27 1.0
2017-Jan-13 23:33N 42°46' E 009°48'2222.4
2017-Jan-13 22:33N 42°58' E 010°13'2222.1
2017-Jan-13 21:33N 43°20' E 010°10'1413.5
2017-Jan-13 20:31N 43°33' E 010°18'0 0.0
2017-Jan-13 19:28N 43°33' E 010°18'0 0.0
2017-Jan-13 18:31N 43°33' E 010°18'0 0.0
2017-Jan-13 17:28N 43°33' E 010°18'0 0.0
2017-Jan-13 16:34N 43°33' E 010°18'0 0.0
2017-Jan-13 15:33N 43°33' E 010°18'0 0.0
2017-Jan-13 14:33N 43°33' E 010°18'0 0.0
2017-Jan-13 13:33N 43°33' E 010°18'0 0.0
2017-Jan-13 12:30N 43°33' E 010°18'0 0.0
2017-Jan-13 11:32N 43°33' E 010°18'0 0.0
2017-Jan-13 10:32N 43°33' E 010°18'0 0.0
2017-Jan-13 09:29N 43°33' E 010°18'0 0.0
2017-Jan-13 08:32N 43°33' E 010°18'0 0.0
2017-Jan-13 07:33N 43°33' E 010°18'8 8.0
2017-Jan-13 06:34N 43°28' E 010°10'1918.8
2017-Jan-13 05:33N 43°14' E 009°52'16 0.5
2017-Jan-11 22:33N 43°00' E 010°02'2221.8
2017-Jan-11 21:33N 43°21' E 010°10'1313.0
2017-Jan-11 20:33N 43°33' E 010°18'0 0.0
2017-Jan-11 19:29N 43°33' E 010°18'0 0.0
2017-Jan-11 18:32N 43°33' E 010°18'0 0.0
2017-Jan-11 17:32N 43°33' E 010°18'0 0.0
2017-Jan-11 16:32N 43°33' E 010°18'0 0.0
2017-Jan-11 15:29N 43°33' E 010°18'0 0.0
2017-Jan-11 14:31N 43°33' E 010°18'0 0.0
2017-Jan-11 13:31N 43°33' E 010°18'0 0.0
2017-Jan-11 12:31N 43°33' E 010°18'0 0.0
2017-Jan-11 11:31N 43°33' E 010°18'0 0.0
2017-Jan-11 10:28N 43°33' E 010°18'0 0.0
2017-Jan-11 09:33N 43°33' E 010°18'0 0.0
2017-Jan-11 08:27N 43°33' E 010°18'0 0.0
2017-Jan-11 07:33N 43°33' E 010°18'0 0.0
2017-Jan-11 06:33N 43°33' E 010°18'0 0.0
2017-Jan-11 05:30N 43°33' E 010°18'6 6.6
2017-Jan-11 04:33N 43°28' E 010°13'1919.2
2017-Jan-11 03:34N 43°09' E 010°07'10 0.3
2017-Jan-09 22:33N 43°00' E 010°03'2121.3
2017-Jan-09 21:33N 43°21' E 010°09'1413.9
2017-Jan-09 20:33N 43°33' E 010°18'0 0.0
2017-Jan-09 19:33N 43°33' E 010°18'0 0.0
2017-Jan-09 18:30N 43°33' E 010°18'0 0.0
2017-Jan-09 17:33N 43°33' E 010°18'0 0.0
2017-Jan-09 16:32N 43°33' E 010°18'0 0.0
2017-Jan-09 15:32N 43°33' E 010°18'0 0.0
2017-Jan-09 14:32N 43°33' E 010°18'0 0.0
2017-Jan-09 13:29N 43°33' E 010°18'0 0.0
2017-Jan-09 12:31N 43°33' E 010°18'0 0.0
2017-Jan-09 11:31N 43°33' E 010°18'0 0.0
2017-Jan-09 10:31N 43°33' E 010°18'0 0.0
2017-Jan-09 09:31N 43°33' E 010°18'0 0.0
2017-Jan-09 08:31N 43°33' E 010°18'0 0.0
2017-Jan-09 07:33N 43°33' E 010°18'0 0.0
2017-Jan-09 06:33N 43°33' E 010°18'0 0.0
2017-Jan-09 05:33N 43°33' E 010°18'7 7.1
2017-Jan-09 04:33N 43°27' E 010°12'1919.1
2017-Jan-09 03:33N 43°09' E 010°07'  

Dump ship's entire track history